Weather History for KPEX - January, 2014

Change the Weather History Date:

Saturday, January 18, 2014

  Actual Average (KLJF) Record (KLJF)
Temperature  
Mean Temperature 15 °F -  
Max Temperature 21 °F 20 °F 47 °F (1981)
Min Temperature 11 °F 0 °F -31 °F (1970)
Degree Days  
Heating Degree Days 50    
Moisture  
Dew Point 10 °F    
Average Humidity 83    
Maximum Humidity 90    
Minimum Humidity 70    
Precipitation  
Precipitation 0.00 in - - ()
Sea Level Pressure  
Sea Level Pressure 29.73 in    
Wind  
Wind Speed 12 mph (North)    
Max Wind Speed 15 mph    
Max Gust Speed 22 mph    
Visibility 8 miles    
Events Snow    
Averages and records for this station are not official NWS values.
T = Trace of Precipitation, MM = Missing Value Source: NWS Daily Summary

Daily Weather History Graph

Daily Weather History Graph

Search for Another Location

Airport or City:

Trip Planner

Search our weather history database for the weather conditions in past years. The results will help you decide how hot, cold, wet, or windy it might be!

Date:

Astronomy

Jan. 18, 2014 Rise Set
Actual Time 7:52 AM CST 5:06 PM CST
Civil Twilight 7:20 AM CST 5:39 PM CST
Nautical Twilight 6:43 AM CST 6:15 PM CST
Astronomical Twilight 6:08 AM CST 6:50 PM CST
Moon 7:59 PM CST (1/18) 8:44 AM CST (1/18)
Length of Visible Light 10h 19m
Length of Day
9h 13m
Waning Gibbous, 94% of the Moon is Illuminated
Jan 18
Waning Gibbous
Jan 23
Last Quarter
Jan 30
New
Feb 6
First Quarter
Feb 14
Full

Hourly Weather History & Observations

Time (CST) Temp. Windchill Dew Point Humidity Pressure Visibility Wind Dir Wind Speed Gust Speed Precip Events Conditions
12:12 AM 11.1 °F -4.5 °F 7.7 °F 86% 29.62 in 1.0 mi SE 13.8 mph - N/A Snow Light Snow
12:33 AM 11.7 °F -3.2 °F 8.6 °F 88% 29.60 in 1.8 mi SE 12.7 mph - N/A Snow Light Snow
12:53 AM 11.8 °F -3.6 °F 8.6 °F 87% 29.59 in 2.0 mi SE 13.8 mph - N/A Snow Light Snow
1:12 AM 12.2 °F -3.1 °F 9.3 °F 88% 29.57 in 1.5 mi SE 13.8 mph - N/A Snow Light Snow
1:32 AM 12.6 °F -3.3 °F 9.9 °F 89% 29.55 in 1.2 mi ESE 15.0 mph 21.9 mph N/A Snow Light Snow
1:53 AM 13.1 °F -2.6 °F 10.4 °F 89% 29.52 in 1.2 mi SE 15.0 mph - N/A Snow Light Snow
2:12 AM 14.0 °F -1.4 °F 11.3 °F 89% 29.51 in 1.0 mi SE 15.0 mph 21.9 mph N/A Snow Snow
2:33 AM 14.0 °F -0.8 °F 11.7 °F 90% 29.50 in 1.2 mi SE 13.8 mph 20.7 mph N/A Snow Light Snow
2:52 AM 14.2 °F -1.2 °F 11.7 °F 90% 29.49 in 1.2 mi SE 15.0 mph 20.7 mph N/A Snow Light Snow
3:12 AM 14.0 °F -0.8 °F 11.3 °F 89% 29.48 in 1.0 mi SE 13.8 mph - N/A Snow Snow
3:32 AM 14.0 °F -0.8 °F 11.7 °F 90% 29.47 in 2.0 mi SE 13.8 mph - N/A Snow Light Snow
3:53 AM 14.7 °F 0.7 °F 12.2 °F 90% 29.47 in 1.2 mi ESE 12.7 mph - N/A Snow Light Snow
4:12 AM 14.9 °F 2.3 °F 12.4 °F 90% 29.46 in 1.2 mi ESE 10.4 mph - N/A Snow Light Snow
4:32 AM 14.9 °F 3.1 °F 12.6 °F 90% 29.46 in 1.5 mi ESE 9.2 mph - N/A Snow Light Snow
4:53 AM 14.9 °F 3.1 °F 12.2 °F 89% 29.46 in 3.0 mi East 9.2 mph - N/A Snow Light Snow
5:12 AM 14.5 °F 1.9 °F 11.7 °F 88% 29.46 in 7.0 mi East 10.4 mph - N/A Snow Light Snow
5:33 AM 14.5 °F 1.1 °F 11.8 °F 89% 29.46 in 4.0 mi East 11.5 mph - N/A Snow Light Snow
5:52 AM 14.9 °F 3.1 °F 12.0 °F 88% 29.47 in 10.0 mi ENE 9.2 mph - N/A   Overcast
6:12 AM 14.4 °F 2.4 °F 11.1 °F 87% 29.49 in 10.0 mi ENE 9.2 mph 18.4 mph N/A   Overcast
6:32 AM 13.3 °F -0.5 °F 10.0 °F 87% 29.50 in 5.0 mi ENE 11.5 mph 18.4 mph N/A Snow Light Snow
6:53 AM 13.1 °F -1.4 °F 9.5 °F 86% 29.52 in 5.0 mi ENE 12.7 mph 17.3 mph N/A Snow Light Snow
7:12 AM 12.9 °F -0.9 °F 9.5 °F 86% 29.54 in 4.0 mi NE 11.5 mph - N/A Snow Light Snow
7:32 AM 12.2 °F -2.5 °F 8.6 °F 85% 29.57 in 7.0 mi ENE 12.7 mph - N/A   Overcast
7:52 AM 12.0 °F -2.0 °F 8.6 °F 86% 29.59 in 10.0 mi NE 11.5 mph - N/A   Overcast
8:12 AM 12.2 °F -2.5 °F 8.6 °F 85% 29.62 in 10.0 mi NE 12.7 mph 18.4 mph N/A   Overcast
8:32 AM 12.4 °F -2.9 °F 8.6 °F 85% 29.65 in 10.0 mi NE 13.8 mph - N/A   Overcast
8:53 AM 12.2 °F -1.8 °F 8.4 °F 85% 29.67 in 10.0 mi NE 11.5 mph 19.6 mph N/A   Overcast
9:12 AM 11.8 °F -1.5 °F 7.7 °F 83% 29.70 in 10.0 mi NNE 10.4 mph - N/A   Scattered Clouds
9:32 AM 12.2 °F -1.8 °F 7.5 °F 82% 29.73 in 10.0 mi NNE 11.5 mph 18.4 mph N/A   Scattered Clouds
9:52 AM 12.2 °F -1.8 °F 7.5 °F 82% 29.76 in 10.0 mi NNE 11.5 mph 17.3 mph N/A   Mostly Cloudy
10:12 AM 12.2 °F -3.1 °F 7.7 °F 82% 29.77 in 10.0 mi NNE 13.8 mph 19.6 mph N/A   Mostly Cloudy
10:32 AM 12.9 °F -2.2 °F 7.7 °F 80% 29.80 in 10.0 mi NNE 13.8 mph - N/A   Scattered Clouds
10:52 AM 13.6 °F 1.6 °F 7.7 °F 77% 29.83 in 10.0 mi North 9.2 mph 16.1 mph N/A   Clear
11:13 AM 13.8 °F 1.0 °F 7.5 °F 76% 29.84 in 10.0 mi North 10.4 mph 16.1 mph N/A   Clear
11:32 AM 14.0 °F 1.2 °F 7.7 °F 76% 29.85 in 10.0 mi North 10.4 mph - N/A   Clear
11:52 AM 14.7 °F 3.8 °F 7.7 °F 74% 29.86 in 10.0 mi North 8.1 mph - N/A   Clear
12:13 PM 14.9 °F 4.0 °F 7.7 °F 73% 29.89 in 10.0 mi North 8.1 mph - N/A   Clear
12:32 PM 15.4 °F 2.3 °F 8.2 °F 73% 29.89 in 10.0 mi NNW 11.5 mph - N/A   Clear
12:52 PM 16.2 °F 5.5 °F 8.6 °F 72% 29.90 in 10.0 mi North 8.1 mph - N/A   Clear
1:12 PM 16.7 °F 8.3 °F 9.1 °F 72% 29.89 in 10.0 mi North 5.8 mph - N/A   Clear
1:32 PM 17.2 °F 8.9 °F 9.1 °F 71% 29.89 in 10.0 mi North 5.8 mph - N/A   Clear
1:52 PM 17.2 °F 8.9 °F 9.1 °F 71% 29.87 in 10.0 mi NNE 5.8 mph - N/A   Clear
2:13 PM 17.2 °F 8.9 °F 9.3 °F 71% 29.88 in 10.0 mi NNW 5.8 mph - N/A   Clear
2:32 PM 18.0 °F 6.1 °F 9.5 °F 70% 29.91 in 10.0 mi WNW 10.4 mph - N/A   Clear
2:52 PM 17.1 °F 3.6 °F 9.5 °F 72% 29.92 in 10.0 mi WNW 12.7 mph - N/A   Clear
3:12 PM 16.7 °F 6.2 °F 9.1 °F 72% 29.92 in 10.0 mi WNW 8.1 mph - N/A   Clear
3:32 PM 17.2 °F 6.8 °F 9.5 °F 72% 29.92 in 10.0 mi WNW 8.1 mph - N/A   Clear
3:53 PM 17.2 °F 6.8 °F 9.5 °F 72% 29.93 in 10.0 mi West 8.1 mph - N/A   Clear
4:12 PM 16.7 °F 4.5 °F 9.3 °F 73% 29.94 in 10.0 mi West 10.4 mph - N/A   Clear
4:32 PM 15.8 °F 4.2 °F 9.1 °F 75% 29.95 in 10.0 mi West 9.2 mph - N/A   Clear
4:52 PM 14.2 °F 3.1 °F 8.4 °F 78% 29.94 in 10.0 mi West 8.1 mph - N/A   Clear
5:12 PM 14.9 °F 3.1 °F 9.5 °F 79% 29.94 in 10.0 mi West 9.2 mph - N/A   Clear
5:32 PM 13.3 °F 1.1 °F 8.2 °F 80% 29.92 in 10.0 mi West 9.2 mph - N/A   Clear
5:52 PM 12.2 °F -1.8 °F 7.5 °F 82% 29.93 in 10.0 mi West 11.5 mph 16.1 mph N/A   Clear
6:13 PM 12.0 °F -0.4 °F 7.7 °F 83% 29.92 in 10.0 mi West 9.2 mph - N/A   Clear
6:33 PM 11.8 °F -1.5 °F 7.7 °F 83% 29.92 in 10.0 mi West 10.4 mph - N/A   Scattered Clouds
6:52 PM 12.2 °F -1.0 °F 8.4 °F 85% 29.91 in 10.0 mi West 10.4 mph - N/A   Mostly Cloudy
7:12 PM 12.7 °F -0.4 °F 9.1 °F 86% 29.90 in 10.0 mi WSW 10.4 mph - N/A   Overcast
7:32 PM 13.1 °F -2.0 °F 9.5 °F 86% 29.88 in 10.0 mi WSW 13.8 mph - N/A   Overcast
7:52 PM 13.6 °F 0.0 °F 10.4 °F 87% 29.88 in 10.0 mi WSW 11.5 mph - N/A   Mostly Cloudy
8:12 PM 14.2 °F 0.7 °F 11.3 °F 88% 29.87 in 10.0 mi WSW 11.5 mph - N/A   Mostly Cloudy
8:32 PM 14.5 °F 2.7 °F 11.8 °F 89% 29.84 in 10.0 mi WSW 9.2 mph - N/A   Scattered Clouds
8:52 PM 14.9 °F 4.0 °F 12.4 °F 90% 29.81 in 10.0 mi SW 8.1 mph - N/A   Mostly Cloudy
9:12 PM 16.0 °F 4.4 °F 13.1 °F 88% 29.79 in 10.0 mi SW 9.2 mph - N/A   Overcast
9:32 PM 16.3 °F 5.7 °F 13.1 °F 87% 29.77 in 10.0 mi SW 8.1 mph - N/A   Overcast
9:52 PM 16.7 °F 7.2 °F 13.8 °F 88% 29.76 in 10.0 mi SW 6.9 mph - N/A   Overcast
10:12 PM 17.1 °F 7.6 °F 14.0 °F 88% 29.75 in 10.0 mi SSW 6.9 mph - N/A   Mostly Cloudy
10:32 PM 17.1 °F 10.0 °F 14.0 °F 88% 29.74 in 10.0 mi SSW 4.6 mph - N/A   Clear
10:52 PM 17.4 °F 7.1 °F 14.7 °F 89% 29.72 in 10.0 mi SSW 8.1 mph - N/A   Clear
11:12 PM 19.0 °F 8.2 °F 16.3 °F 89% 29.71 in 10.0 mi SW 9.2 mph - N/A   Clear
11:33 PM 19.9 °F 8.6 °F 17.2 °F 89% 29.70 in 10.0 mi SW 10.4 mph - N/A   Clear
11:52 PM 21.4 °F 10.4 °F 18.3 °F 88% 29.68 in 10.0 mi SW 10.4 mph - N/A   Clear